Time;durP1;ratioP1;P1;durP2;ratioP2;P2;SDS_P1;SDS_P2;PMS_P1;PMS_P2;Temp;Humidity;BMP_temperature;BMP_pressure;BME280_temperature;BME280_humidity;BME280_pressure;Samples;Min_cycle;Max_cycle;Signal;HPM_P1;HPM_P2
2022/05/18 00:00:56;;;;;;;0.73;0.73;;;7.20;90.90;;;;;;4996686;28;20196;-83
2022/05/18 00:03:25;;;;;;;0.73;0.70;;;7.10;91.40;;;;;;4996658;28;20215;-84
2022/05/18 00:05:51;;;;;;;1.80;0.90;;;;;;;;;;5013640;28;20223;-84
2022/05/18 00:08:17;;;;;;;1.47;1.00;;;;;;;;;;4997144;28;20189;-83
2022/05/18 00:10:48;;;;;;;0.70;0.70;;;7.00;92.60;;;;;;5014369;28;20264;-83
2022/05/18 00:13:14;;;;;;;4.20;1.03;;;;;;;;;;4997755;28;20181;-83
2022/05/18 00:15:40;;;;;;;1.07;1.00;;;;;;;;;;4996609;28;20192;-84
2022/05/18 00:18:06;;;;;;;0.70;0.70;;;;;;;;;;4996187;28;20223;-84
2022/05/18 00:20:33;;;;;;;1.97;1.00;;;;;;;;;;5013886;28;20185;-84
2022/05/18 00:23:03;;;;;;;3.73;1.43;;;6.90;94.20;;;;;;5013667;28;20227;-83
2022/05/18 00:25:35;;;;;;;1.07;0.90;;;6.90;99.90;;;;;;4996660;28;20235;-83
2022/05/18 00:28:01;;;;;;;0.70;0.70;;;;;;;;;;4996009;28;20224;-84
2022/05/18 00:30:28;;;;;;;1.57;0.93;;;6.80;95.10;;;;;;4996207;28;20192;-84
2022/05/18 00:32:55;;;;;;;0.93;0.90;;;;;;;;;;4996245;28;20231;-83
2022/05/18 00:35:22;;;;;;;1.27;0.97;;;;;;;;;;4996108;28;20182;-83
2022/05/18 00:37:49;;;;;;;4.37;0.90;;;;;;;;;;4996197;28;20192;-83
2022/05/18 00:40:17;;;;;;;0.80;0.80;;;6.70;96.70;;;;;;4995772;28;20191;-83
2022/05/18 00:42:43;;;;;;;1.83;0.80;;;;;;;;;;5013788;28;20181;-84
2022/05/18 00:45:09;;;;;;;0.70;0.70;;;6.70;99.90;;;;;;4995907;28;20257;-83
2022/05/18 00:47:35;;;;;;;1.00;0.90;;;;;;;;;;5013370;28;20598;-83
2022/05/18 00:50:16;;;;;;;0.80;0.80;;;6.60;98.10;;;;;;5013617;28;20189;-83
2022/05/18 00:52:51;;;;;;;1.17;0.90;;;6.50;98.20;;;;;;5013689;28;20205;-84
2022/05/18 00:55:21;;;;;;;1.57;0.80;;;6.50;98.60;;;;;;4995957;28;20188;-83
2022/05/18 00:57:56;;;;;;;1.73;1.10;;;6.70;99.90;;;;;;4995783;28;20180;-85
2022/05/18 01:00:22;;;;;;;2.43;1.17;;;;;;;;;;4996568;28;20234;-84
2022/05/18 01:02:55;;;;;;;0.90;0.90;;;6.40;99.80;;;;;;5013480;28;20209;-85
2022/05/18 01:05:27;;;;;;;1.20;1.10;;;6.40;99.90;;;;;;4996138;28;20183;-84
2022/05/18 01:07:56;;;;;;;4.33;1.60;;;6.30;99.90;;;;;;4995936;28;20216;-84
2022/05/18 01:10:22;;;;;;;0.67;0.67;;;;;;;;;;5013575;28;20185;-84
2022/05/18 01:12:48;;;;;;;1.00;0.90;;;;;;;;;;4979826;28;20220;-84
2022/05/18 01:15:18;;;;;;;1.03;0.83;;;6.30;99.90;;;;;;4998605;28;20181;-84
2022/05/18 01:17:46;;;;;;;1.03;0.97;;;6.20;99.90;;;;;;4999885;28;20212;-84
2022/05/18 01:20:21;;;;;;;0.63;0.60;;;6.20;99.90;;;;;;5017131;28;20173;-84
2022/05/18 01:23:08;;;;;;;5.87;1.00;;;6.00;99.90;;;;;;5017548;28;20274;-84
2022/05/18 01:26:05;;;;;;;0.70;0.70;;;6.10;99.90;;;;;;5017675;28;20165;-84
2022/05/18 01:28:36;;;;;;;2.80;1.40;;;6.10;99.90;;;;;;5017892;28;20178;-84
2022/05/18 01:31:04;;;;;;;0.77;0.77;;;6.00;99.90;;;;;;5003422;28;20188;-83
2022/05/18 01:33:31;;;;;;;0.60;0.60;;;6.00;99.90;;;;;;5023355;28;20586;-83
2022/05/18 01:35:57;;;;;;;2.20;0.60;;;;;;;;;;5039268;28;20189;-87
2022/05/18 01:38:23;;;;;;;1.10;0.83;;;6.20;99.90;;;;;;5022601;28;20172;-82
2022/05/18 01:41:03;;;;;;;0.80;0.80;;;6.00;99.90;;;;;;5014075;28;20533;-83
2022/05/18 01:43:46;;;;;;;0.90;0.90;;;5.40;99.90;;;;;;4999668;28;20273;-83
2022/05/18 01:46:14;;;;;;;1.13;0.97;;;;;;;;;;5004232;28;20217;-82
2022/05/18 01:48:45;;;;;;;1.10;0.83;;;5.90;99.90;;;;;;5021881;28;20154;-82
2022/05/18 01:51:13;;;;;;;0.90;0.90;;;5.90;99.90;;;;;;5036723;28;20174;-82
2022/05/18 01:53:39;;;;;;;0.70;0.70;;;;;;;;;;5034224;28;20184;-84
2022/05/18 01:56:08;;;;;;;0.63;0.63;;;;;;;;;;5000328;28;20271;-84
2022/05/18 01:58:34;;;;;;;0.77;0.77;;;;;;;;;;5017417;28;20225;-83
2022/05/18 02:01:01;;;;;;;1.33;1.23;;;5.80;99.90;;;;;;5017029;28;20189;-84
2022/05/18 02:03:27;;;;;;;0.73;0.73;;;;;;;;;;4999969;28;20185;-84
2022/05/18 02:05:53;;;;;;;0.97;0.87;;;;;;;;;;4983536;28;20190;-84
2022/05/18 02:08:21;;;;;;;0.80;0.80;;;;;;;;;;4998934;28;20181;-84
2022/05/18 02:10:47;;;;;;;0.87;0.87;;;;;;;;;;4982882;28;20189;-84
2022/05/18 02:13:13;;;;;;;0.77;0.77;;;;;;;;;;5015768;28;20186;-84
2022/05/18 02:15:39;;;;;;;1.10;1.00;;;;;;;;;;5016002;28;20544;-85
2022/05/18 02:18:05;;;;;;;0.73;0.73;;;;;;;;;;4998313;28;20189;-84
2022/05/18 02:20:31;;;;;;;1.17;0.80;;;;;;;;;;4998942;28;20182;-84
2022/05/18 02:22:57;;;;;;;2.10;0.70;;;;;;;;;;5016148;28;20181;-83
2022/05/18 02:25:23;;;;;;;0.90;0.83;;;;;;;;;;5015241;28;20366;-83
2022/05/18 02:27:50;;;;;;;1.03;0.97;;;;;;;;;;4998305;28;20223;-83
2022/05/18 02:30:17;;;;;;;0.90;0.73;;;;;;;;;;5015677;28;20170;-84
2022/05/18 02:32:43;;;;;;;1.20;1.10;;;;;;;;;;5015881;28;20184;-84
2022/05/18 02:35:08;;;;;;;4.90;1.00;;;5.90;99.90;;;;;;4997973;28;20196;-84
2022/05/18 02:37:35;;;;;;;0.70;0.70;;;;;;;;;;4981999;28;20190;-84
2022/05/18 02:40:01;;;;;;;1.33;1.00;;;;;;;;;;5015779;28;20236;-84
2022/05/18 02:42:27;;;;;;;3.10;2.30;;;;;;;;;;5015423;28;20213;-83
2022/05/18 02:44:53;;;;;;;0.93;0.93;;;5.70;99.90;;;;;;4998040;28;20213;-84
2022/05/18 02:47:20;;;;;;;3.03;1.90;;;5.50;99.90;;;;;;4981608;28;20303;-84
2022/05/18 02:49:46;;;;;;;1.30;1.20;;;;;;;;;;4982211;28;20700;-84
2022/05/18 02:52:13;;;;;;;3.03;1.17;;;;;;;;;;4998024;28;20275;-84
2022/05/18 02:57:23;;;;;;;1.30;1.13;;;;;;;;;;5017089;28;20180;-83
2022/05/18 02:59:49;;;;;;;1.53;1.23;;;;;;;;;;4998197;28;20670;-84
2022/05/18 03:02:15;;;;;;;1.20;1.10;;;;;;;;;;4998344;28;20185;-85
2022/05/18 03:04:41;;;;;;;1.53;0.90;;;;;;;;;;4998220;28;20216;-84
2022/05/18 03:07:07;;;;;;;0.93;0.93;;;5.30;99.90;;;;;;4997821;28;20260;-82
2022/05/18 03:09:33;;;;;;;1.17;1.00;;;5.40;99.90;;;;;;4997565;28;20680;-85
2022/05/18 03:12:00;;;;;;;1.43;1.33;;;;;;;;;;5015726;28;20209;-85
2022/05/18 03:14:26;;;;;;;0.80;0.80;;;;;;;;;;4997334;28;20185;-84
2022/05/18 03:16:52;;;;;;;1.17;1.07;;;;;;;;;;4981503;28;20189;-85
2022/05/18 03:19:22;;;;;;;1.10;1.07;;;;;;;;;;4997268;28;20188;-85
2022/05/18 03:24:33;;;;;;;0.80;0.80;;;;;;;;;;5014816;28;20204;-84
2022/05/18 03:26:59;;;;;;;0.93;0.90;;;;;;;;;;5014999;28;20300;-84
2022/05/18 03:29:25;;;;;;;1.00;1.00;;;;;;;;;;4997380;28;20217;-85
2022/05/18 03:31:51;;;;;;;1.17;0.87;;;;;;;;;;4997223;28;20182;-85
2022/05/18 03:34:18;;;;;;;1.43;1.00;;;;;;;;;;5012492;28;20200;-85
2022/05/18 03:36:44;;;;;;;1.87;1.27;;;;;;;;;;5010978;28;20200;-87
2022/05/18 03:39:11;;;;;;;0.93;0.77;;;;;;;;;;4996530;28;20192;-85
2022/05/18 03:41:37;;;;;;;2.33;1.40;;;;;;;;;;5000231;28;20180;-85
2022/05/18 03:44:04;;;;;;;3.07;1.27;;;5.50;99.90;;;;;;4976521;28;20959;-85
2022/05/18 03:46:31;;;;;;;0.90;0.73;;;;;;;;;;4995728;28;20696;-85
2022/05/18 03:48:58;;;;;;;1.23;1.13;;;;;;;;;;5014673;28;20195;-84
2022/05/18 03:51:24;;;;;;;1.43;1.33;;;;;;;;;;5011032;28;20189;-85
2022/05/18 03:53:49;;;;;;;1.90;0.90;;;5.70;99.90;;;;;;4997094;28;20733;-84
2022/05/18 03:56:16;;;;;;;1.07;1.07;;;;;;;;;;4995130;28;20181;-84
2022/05/18 03:58:42;;;;;;;3.17;0.90;;;;;;;;;;5011629;28;20263;-84
2022/05/18 04:01:09;;;;;;;0.70;0.70;;;5.90;99.90;;;;;;4996665;28;20235;-84
2022/05/18 04:03:46;;;;;;;1.30;1.20;;;5.90;99.90;;;;;;4981271;28;20189;-85
2022/05/18 04:06:12;;;;;;;5.13;0.90;;;;;;;;;;4995210;28;20196;-85
2022/05/18 04:08:38;;;;;;;4.50;1.03;;;;;;;;;;5012434;28;20188;-85
2022/05/18 04:11:05;;;;;;;1.03;0.83;;;6.10;99.90;;;;;;4979319;28;20193;-85
2022/05/18 04:13:32;;;;;;;0.80;0.80;;;;;;;;;;4996515;28;20204;-85
2022/05/18 04:15:58;;;;;;;1.47;1.37;;;;;;;;;;5018204;28;20268;-86
2022/05/18 04:18:24;;;;;;;0.97;0.87;;;;;;;;;;4994745;28;20223;-84
2022/05/18 04:20:52;;;;;;;1.97;1.83;;;6.40;99.90;;;;;;5013054;28;20303;-86
2022/05/18 04:23:18;;;;;;;4.30;1.40;;;;;;;;;;4994482;28;20181;-85
2022/05/18 04:25:45;;;;;;;1.33;1.03;;;;;;;;;;5012563;28;20196;-86
2022/05/18 04:28:14;;;;;;;3.00;1.20;;;;;;;;;;4978882;28;20336;-84
2022/05/18 04:30:43;;;;;;;1.20;1.10;;;6.50;99.90;;;;;;5012144;28;20197;-87
2022/05/18 04:33:09;;;;;;;2.17;1.63;;;;;;;;;;5012446;28;20192;-87
2022/05/18 04:35:35;;;;;;;1.90;1.10;;;;;;;;;;4993358;28;20656;-86
2022/05/18 04:38:01;;;;;;;3.37;1.10;;;6.30;99.90;;;;;;4996883;28;20197;-85
2022/05/18 04:40:27;;;;;;;1.70;1.00;;;;;;;;;;4966297;28;20193;-87
2022/05/18 04:42:53;;;;;;;0.80;0.80;;;;;;;;;;4982286;28;20659;-87
2022/05/18 04:45:22;;;;;;;1.33;0.80;;;6.60;99.90;;;;;;4999159;28;20262;-86
2022/05/18 04:47:49;;;;;;;2.10;1.30;;;6.70;99.90;;;;;;5003547;28;20570;-86
2022/05/18 04:50:16;;;;;;;1.53;1.00;;;;;;;;;;5016461;28;20190;-86
2022/05/18 04:52:44;;;;;;;1.07;1.00;;;6.90;99.90;;;;;;4999139;28;20235;-88
2022/05/18 04:55:11;;;;;;;1.87;1.33;;;;;;;;;;4993132;28;20200;-86
2022/05/18 05:01:14;;;;;;;2.33;1.43;;;7.20;99.90;;;;;;5238515;23;20767;-89
2022/05/18 05:03:40;;;;;;;1.00;0.90;;;;;;;;;;4979138;28;20299;-82
2022/05/18 05:06:06;;;;;;;0.87;0.77;;;6.80;99.90;;;;;;4995642;28;20217;-81
2022/05/18 05:08:36;;;;;;;1.20;1.10;;;;;;;;;;5012148;28;20634;-85
2022/05/18 05:11:02;;;;;;;0.90;0.90;;;;;;;;;;5012458;28;20177;-81
2022/05/18 05:13:28;;;;;;;1.17;0.90;;;;;;;;;;4995176;28;20538;-81
2022/05/18 05:16:06;;;;;;;4.60;1.10;;;7.60;99.90;;;;;;4995252;28;20185;-82
2022/05/18 05:18:32;;;;;;;1.60;1.20;;;;;;;;;;5012921;28;20255;-81
2022/05/18 05:20:58;;;;;;;1.80;0.80;;;;;;;;;;5012409;28;20181;-83
2022/05/18 05:23:25;;;;;;;0.90;0.90;;;;;;;;;;4995157;28;20235;-80
2022/05/18 05:25:51;;;;;;;1.17;0.73;;;7.90;99.90;;;;;;4994921;28;20178;-82
2022/05/18 05:28:17;;;;;;;0.70;0.70;;;;;;;;;;5012726;28;20204;-81
2022/05/18 05:30:44;;;;;;;0.87;0.87;;;;;;;;;;4994910;28;20668;-82
2022/05/18 05:33:11;;;;;;;0.80;0.80;;;;;;;;;;4995298;28;20177;-84
2022/05/18 05:35:41;;;;;;;0.67;0.67;;;7.80;99.90;;;;;;4995077;28;20192;-83
2022/05/18 05:38:08;;;;;;;1.07;0.83;;;7.90;99.90;;;;;;4995069;28;20185;-83
2022/05/18 05:40:34;;;;;;;1.70;1.03;;;;;;;;;;4994906;28;20181;-83
2022/05/18 05:43:06;;;;;;;1.40;0.70;;;8.20;99.90;;;;;;4994823;28;20255;-82
2022/05/18 05:45:32;;;;;;;0.80;0.80;;;;;;;;;;4995970;28;20201;-82
2022/05/18 05:47:58;;;;;;;5.00;0.60;;;8.40;99.90;;;;;;5013271;28;20240;-82
2022/05/18 05:50:25;;;;;;;2.20;1.00;;;8.80;99.90;;;;;;4996470;28;20193;-83
2022/05/18 05:52:51;;;;;;;0.70;0.70;;;;;;;;;;4995080;28;20276;-83
2022/05/18 05:55:18;;;;;;;1.53;0.70;;;;;;;;;;5012997;28;20209;-82
2022/05/18 05:57:44;;;;;;;0.90;0.70;;;;;;;;;;4995181;28;20216;-82
2022/05/18 06:00:10;;;;;;;0.70;0.70;;;8.60;99.90;;;;;;4996630;28;20615;-81
2022/05/18 06:02:36;;;;;;;1.07;0.70;;;;;;;;;;4999259;28;20181;-83
2022/05/18 06:05:03;;;;;;;1.27;1.03;;;8.80;99.90;;;;;;5016680;28;20185;-83
2022/05/18 06:07:30;;;;;;;0.83;0.60;;;9.00;99.90;;;;;;5016633;28;20205;-83
2022/05/18 06:09:56;;;;;;;0.73;0.73;;;;;;;;;;4998409;28;20213;-83
2022/05/18 06:12:24;;;;;;;0.70;0.70;;;9.40;97.90;;;;;;5016429;28;20186;-82
2022/05/18 06:14:50;;;;;;;3.43;1.00;;;9.50;99.90;;;;;;4999046;28;20181;-82
2022/05/18 06:17:16;;;;;;;1.60;0.60;;;9.40;99.90;;;;;;5016504;28;20204;-82
2022/05/18 06:19:42;;;;;;;0.70;0.57;;;;;;;;;;5016061;28;20181;-83
2022/05/18 06:22:08;;;;;;;2.27;0.70;;;9.40;99.90;;;;;;5016745;28;20181;-82
2022/05/18 06:24:35;;;;;;;0.70;0.70;;;9.50;96.30;;;;;;4983130;28;20196;-82
2022/05/18 06:27:02;;;;;;;0.77;0.77;;;10.00;99.90;;;;;;5015950;28;20215;-81
2022/05/18 06:29:28;;;;;;;1.50;1.00;;;;;;;;;;4981364;28;20279;-82
2022/05/18 06:31:54;;;;;;;0.50;0.50;;;;;;;;;;5014465;28;20684;-83
2022/05/18 06:34:21;;;;;;;0.70;0.60;;;;;;;;;;5014903;28;20181;-83
2022/05/18 06:36:51;;;;;;;0.60;0.60;;;9.70;93.40;;;;;;5014167;28;20185;-82
2022/05/18 06:39:19;;;;;;;1.00;0.77;;;9.80;94.20;;;;;;4997257;28;20181;-82
2022/05/18 06:41:46;;;;;;;0.93;0.73;;;10.30;98.90;;;;;;4997663;28;20593;-82
2022/05/18 06:44:12;;;;;;;0.80;0.80;;;10.00;98.40;;;;;;4997688;28;20182;-83
2022/05/18 06:46:38;;;;;;;0.93;0.60;;;;;;;;;;5015334;28;20201;-83
2022/05/18 06:49:06;;;;;;;0.70;0.70;;;10.30;96.70;;;;;;4997581;28;20185;-82
2022/05/18 06:51:35;;;;;;;1.23;1.10;;;10.30;96.50;;;;;;5015248;28;20182;-82
2022/05/18 06:54:01;;;;;;;0.87;0.50;;;10.80;96.70;;;;;;5014964;28;20264;-84
2022/05/18 06:56:32;;;;;;;1.77;0.57;;;10.40;91.70;;;;;;5015003;28;20300;-82
2022/05/18 06:58:58;;;;;;;0.90;0.80;;;10.60;96.70;;;;;;4996888;28;20188;-82
2022/05/18 07:01:25;;;;;;;0.80;0.60;;;10.60;85.80;;;;;;5014907;28;20232;-83
2022/05/18 07:03:52;;;;;;;0.70;0.70;;;;;;;;;;5013860;28;20223;-82
2022/05/18 07:06:20;;;;;;;0.53;0.53;;;10.50;86.20;;;;;;5013942;28;20185;-83
2022/05/18 07:08:46;;;;;;;0.60;0.60;;;;;;;;;;5014605;28;20235;-85
2022/05/18 07:11:12;;;;;;;0.60;0.60;;;11.00;99.90;;;;;;4996949;28;20189;-81
2022/05/18 07:13:38;;;;;;;0.50;0.50;;;;;;;;;;5015019;28;20347;-82
2022/05/18 07:16:05;;;;;;;0.97;0.60;;;10.90;91.10;;;;;;4996424;28;20177;-82
2022/05/18 07:18:33;;;;;;;0.60;0.57;;;10.80;91.10;;;;;;4997104;28;20181;-82
2022/05/18 07:21:02;;;;;;;0.70;0.60;;;10.80;91.80;;;;;;4996746;28;20185;-81
2022/05/18 07:23:29;;;;;;;0.60;0.60;;;11.00;91.50;;;;;;5014940;28;20180;-82
2022/05/18 07:25:56;;;;;;;0.80;0.80;;;11.20;91.30;;;;;;5014644;28;20631;-82
2022/05/18 07:28:23;;;;;;;1.00;0.82;;;11.30;90.40;;;;;;5014256;28;20204;-82
2022/05/18 07:30:50;;;;;;;0.80;0.80;;;10.90;78.90;;;;;;5014107;28;20663;-87
2022/05/18 07:33:17;;;;;;;0.60;0.60;;;11.10;90.20;;;;;;5014705;28;20219;-83
2022/05/18 07:35:44;;;;;;;1.02;0.80;;;11.30;90.00;;;;;;4996730;28;20550;-83
2022/05/18 07:38:10;;;;;;;1.60;0.87;;;11.00;85.30;;;;;;4980375;28;20630;-84
2022/05/18 07:40:36;;;;;;;0.63;0.50;;;11.30;88.90;;;;;;4980536;28;20207;-84
2022/05/18 07:43:02;;;;;;;0.60;0.60;;;11.00;83.10;;;;;;5014495;28;20177;-83
2022/05/18 07:45:28;;;;;;;0.65;0.65;;;11.40;87.60;;;;;;4980440;28;20192;-83
2022/05/18 07:47:55;;;;;;;0.73;0.60;;;11.40;87.60;;;;;;4996307;28;20653;-82
2022/05/18 07:50:24;;;;;;;0.73;0.68;;;11.60;88.70;;;;;;4980437;28;20259;-82
2022/05/18 07:52:52;;;;;;;2.42;0.65;;;11.50;78.40;;;;;;4997077;28;20185;-83
2022/05/18 07:55:18;;;;;;;0.73;0.73;;;11.20;85.60;;;;;;4997513;28;20201;-82
2022/05/18 07:57:44;;;;;;;0.68;0.68;;;11.30;85.20;;;;;;4997318;28;20189;-82
2022/05/18 08:00:12;;;;;;;1.25;0.70;;;11.50;87.10;;;;;;5014695;28;20244;-82
2022/05/18 08:02:38;;;;;;;1.05;0.60;;;11.40;86.90;;;;;;5014940;28;20173;-81
2022/05/18 08:05:05;;;;;;;2.45;0.65;;;11.50;87.20;;;;;;5014297;28;20173;-82
2022/05/18 08:07:31;;;;;;;0.63;0.40;;;11.90;85.20;;;;;;5013619;28;20283;-83
2022/05/18 08:15:27;;;;;;;0.55;0.55;;;11.60;82.90;;;;;;4984723;28;20235;-82
2022/05/18 08:17:53;;;;;;;0.70;0.70;;;11.80;80.10;;;;;;5013741;28;20275;-82
2022/05/18 08:20:22;;;;;;;0.40;0.40;;;11.70;71.90;;;;;;4996219;28;20685;-82
2022/05/18 08:22:47;;;;;;;0.50;0.50;;;11.80;72.60;;;;;;4995771;28;20272;-82
2022/05/18 08:25:14;;;;;;;0.60;0.60;;;12.00;82.00;;;;;;5013861;28;20642;-82
2022/05/18 08:27:50;;;;;;;1.52;0.60;;;12.30;82.20;;;;;;4996266;28;20208;-85
2022/05/18 08:30:20;;;;;;;0.80;0.80;;;12.00;73.50;;;;;;4996954;28;20226;-86
2022/05/18 08:32:46;;;;;;;0.47;0.47;;;11.70;81.70;;;;;;4996379;28;20173;-85
2022/05/18 08:35:14;;;;;;;0.60;0.60;;;11.70;83.00;;;;;;4995784;28;20174;-87
2022/05/18 08:37:46;;;;;;;1.08;0.90;;;12.50;82.10;;;;;;4997605;28;20191;-89
2022/05/18 08:40:27;;;;;;;0.57;0.57;;;12.30;79.20;;;;;;5013877;28;20208;-87
2022/05/18 08:42:53;;;;;;;1.88;0.70;;;12.60;78.30;;;;;;4995852;28;20563;-87
2022/05/18 08:45:19;;;;;;;0.82;0.70;;;12.20;79.10;;;;;;4995829;28;20185;-87
2022/05/18 08:47:58;;;;;;;0.50;0.50;;;12.60;79.30;;;;;;4978881;28;20208;-87
2022/05/18 08:50:24;;;;;;;0.80;0.80;;;13.00;78.40;;;;;;5012883;28;20753;-87
2022/05/18 08:53:08;;;;;;;0.50;0.50;;;13.00;76.90;;;;;;4995263;28;20187;-87
2022/05/18 08:56:11;;;;;;;1.52;0.70;;;12.70;77.90;;;;;;4995859;28;20185;-88
2022/05/18 08:58:49;;;;;;;0.68;0.50;;;12.60;69.20;;;;;;5013887;28;20184;-87
2022/05/18 09:01:21;;;;;;;0.70;0.70;;;12.50;76.20;;;;;;5013902;28;20315;-87
2022/05/18 09:04:00;;;;;;;2.05;0.60;;;12.60;68.50;;;;;;4996089;28;20173;-87
2022/05/18 09:06:26;;;;;;;0.73;0.55;;;12.40;79.90;;;;;;4996269;28;20173;-87
2022/05/18 09:11:45;;;;;;;1.83;0.63;;;12.90;69.30;;;;;;5013351;28;20173;-90
2022/05/18 09:14:11;;;;;;;0.40;0.40;;;;;;;;;;4979698;28;20177;-89
2022/05/18 09:16:46;;;;;;;0.73;0.73;;;13.00;76.70;;;;;;4995589;28;20196;-90
2022/05/18 09:19:45;;;;;;;0.57;0.57;;;12.70;76.20;;;;;;4995725;28;20539;-87
2022/05/18 09:22:35;;;;;;;1.52;0.90;;;13.20;76.30;;;;;;5012649;28;20161;-90
2022/05/18 09:25:45;;;;;;;0.40;0.40;;;13.40;74.40;;;;;;4996804;28;20646;-93
2022/05/18 09:28:19;;;;;;;0.50;0.50;;;12.90;74.30;;;;;;5013418;28;20205;-93
2022/05/18 09:31:03;;;;;;;0.40;0.40;;;14.00;75.00;;;;;;5013005;28;20252;-91
2022/05/18 09:33:50;;;;;;;0.50;0.40;;;13.80;71.50;;;;;;4995121;28;20195;-92
2022/05/18 09:36:27;;;;;;;0.68;0.68;;;13.50;69.30;;;;;;4997693;28;20204;-89
2022/05/18 09:39:13;;;;;;;0.90;0.77;;;13.70;61.10;;;;;;5016243;28;20227;-89
2022/05/18 09:41:48;;;;;;;0.57;0.57;;;13.90;71.00;;;;;;4998885;28;20169;-90
2022/05/18 09:44:34;;;;;;;0.55;0.52;;;13.40;68.70;;;;;;4998496;28;20184;-89
2022/05/18 09:47:01;;;;;;;2.55;0.50;;;13.70;68.60;;;;;;5016676;28;20189;-88
2022/05/18 09:49:31;;;;;;;0.85;0.63;;;13.90;69.70;;;;;;4999024;28;20178;-89
2022/05/18 09:52:00;;;;;;;1.15;1.13;;;14.50;71.30;;;;;;5016575;28;20165;-88
2022/05/18 09:54:25;;;;;;;0.60;0.60;;;14.00;71.90;;;;;;5019741;28;20173;-88
2022/05/18 09:57:17;;;;;;;0.40;0.40;;;14.60;70.70;;;;;;5017703;28;20184;-89
2022/05/18 09:59:47;;;;;;;0.30;0.30;;;14.50;65.10;;;;;;5003356;28;20605;-91
2022/05/18 10:07:51;;;;;;;0.70;0.60;;;14.80;66.00;;;;;;5016549;28;20204;-89
2022/05/18 10:10:21;;;;;;;2.55;0.50;;;14.30;67.70;;;;;;5016866;28;20185;-90
2022/05/18 10:12:53;;;;;;;0.28;0.28;;;14.80;57.20;;;;;;5016902;28;20169;-90
2022/05/18 10:15:24;;;;;;;1.15;0.45;;;15.00;66.70;;;;;;5016594;28;20181;-91
2022/05/18 10:17:55;;;;;;;0.63;0.63;;;15.10;66.30;;;;;;4999195;28;20181;-90
2022/05/18 10:20:32;;;;;;;1.08;0.70;;;15.20;65.60;;;;;;4999116;28;20203;-91
2022/05/18 10:22:59;;;;;;;1.05;0.70;;;14.60;66.70;;;;;;5019408;28;20185;-89
2022/05/18 10:25:32;;;;;;;0.50;0.50;;;14.60;66.30;;;;;;4995875;28;20217;-90
2022/05/18 10:28:01;;;;;;;0.40;0.40;;;14.90;66.50;;;;;;5030103;28;20197;-89
2022/05/18 10:30:32;;;;;;;1.75;0.70;;;15.30;70.20;;;;;;5010674;28;20212;-90
2022/05/18 10:33:06;;;;;;;0.50;0.50;;;15.00;67.70;;;;;;5025967;28;20169;-91
2022/05/18 10:35:49;;;;;;;2.35;0.60;;;15.10;67.70;;;;;;5006649;28;20201;-91
2022/05/18 10:38:19;;;;;;;0.50;0.50;;;15.00;63.00;;;;;;5029698;28;20168;-88
2022/05/18 10:40:46;;;;;;;0.75;0.60;;;15.50;74.10;;;;;;5010851;28;20173;-89
2022/05/18 10:43:22;;;;;;;0.50;0.50;;;15.20;68.10;;;;;;4992436;28;20193;-89
2022/05/18 10:46:01;;;;;;;0.70;0.68;;;15.30;74.70;;;;;;5023747;28;20192;-90
2022/05/18 10:48:29;;;;;;;0.40;0.40;;;15.30;55.20;;;;;;5024460;28;20200;-89
2022/05/18 10:51:09;;;;;;;0.57;0.57;;;15.30;55.70;;;;;;5003559;28;20185;-90
2022/05/18 10:53:44;;;;;;;0.55;0.45;;;15.30;56.50;;;;;;4999877;28;20539;-90
2022/05/18 10:56:34;;;;;;;1.55;0.80;;;14.90;62.70;;;;;;5016497;28;20163;-88
2022/05/18 10:59:16;;;;;;;1.17;0.77;;;15.40;64.90;;;;;;5016162;28;20193;-88
2022/05/18 11:02:11;;;;;;;2.63;0.60;;;15.30;62.60;;;;;;4998904;28;20737;-88
2022/05/18 11:04:59;;;;;;;0.43;0.43;;;15.20;55.40;;;;;;4980955;28;20654;-92
2022/05/18 11:07:27;;;;;;;0.95;0.95;;;15.20;55.80;;;;;;5023215;28;20201;-90
2022/05/18 11:09:53;;;;;;;1.05;0.60;;;15.50;56.40;;;;;;5027529;28;20237;-91
2022/05/18 11:12:31;;;;;;;1.17;0.40;;;15.80;61.00;;;;;;5024205;28;20204;-89
2022/05/18 11:15:08;;;;;;;1.83;0.82;;;15.50;54.60;;;;;;5029119;28;20177;-93
2022/05/18 11:18:29;;;;;;;0.60;0.60;;;15.60;54.20;;;;;;5032514;28;20201;-94
2022/05/18 11:21:03;;;;;;;0.40;0.40;;;15.90;56.80;;;;;;4936363;29;20757;-90
2022/05/18 11:23:51;;;;;;;0.50;0.50;;;16.00;53.70;;;;;;5036017;28;20188;-92
2022/05/18 11:27:07;;;;;;;1.02;0.50;;;15.80;60.50;;;;;;5033913;28;20181;-93
2022/05/18 11:29:45;;;;;;;0.35;0.35;;;15.50;53.60;;;;;;4962631;28;20251;-91
2022/05/18 11:32:34;;;;;;;0.47;0.43;;;15.60;54.50;;;;;;5019120;28;20640;-92
2022/05/18 11:35:23;;;;;;;0.40;0.40;;;16.10;60.70;;;;;;4997644;28;20328;-90
2022/05/18 11:38:07;;;;;;;0.70;0.60;;;16.10;54.30;;;;;;5014822;28;20185;-90
2022/05/18 11:40:48;;;;;;;0.47;0.40;;;15.90;56.30;;;;;;5014859;28;20158;-89
2022/05/18 11:43:38;;;;;;;1.42;0.70;;;16.10;52.10;;;;;;4997786;28;20665;-90
2022/05/18 11:46:19;;;;;;;0.63;0.50;;;16.20;53.80;;;;;;5015676;28;20205;-89
2022/05/18 11:49:16;;;;;;;1.75;0.60;;;16.20;52.90;;;;;;4998267;28;20642;-91
2022/05/18 11:52:19;;;;;;;0.40;0.40;;;16.10;52.40;;;;;;5014446;28;20157;-89
2022/05/18 11:55:00;;;;;;;0.57;0.57;;;16.40;53.00;;;;;;4997083;28;20239;-92
2022/05/18 11:57:46;;;;;;;0.52;0.40;;;16.60;52.00;;;;;;5014680;28;20170;-90
2022/05/18 12:00:39;;;;;;;0.52;0.30;;;16.20;50.60;;;;;;5014694;28;20229;-90
2022/05/18 12:03:34;;;;;;;0.45;0.45;;;16.20;50.90;;;;;;4997449;28;20174;-89
2022/05/18 12:06:08;;;;;;;0.30;0.30;;;16.20;52.00;;;;;;4997331;28;20212;-90
2022/05/18 12:08:52;;;;;;;0.45;0.45;;;16.50;52.00;;;;;;5015009;28;20200;-94
2022/05/18 12:11:23;;;;;;;0.50;0.40;;;16.60;51.20;;;;;;5014314;28;20168;-91
2022/05/18 12:14:16;;;;;;;0.43;0.40;;;16.50;50.70;;;;;;5014404;28;20177;-90
2022/05/18 12:16:56;;;;;;;0.40;0.40;;;16.40;50.90;;;;;;5014281;28;20635;-91
2022/05/18 12:19:44;;;;;;;1.42;1.15;;;16.60;51.30;;;;;;4996691;28;20201;-89
2022/05/18 12:22:19;;;;;;;0.50;0.50;;;17.00;50.60;;;;;;4996985;28;20646;-90
2022/05/18 12:24:46;;;;;;;0.60;0.50;;;17.00;50.80;;;;;;5014313;28;20168;-89
2022/05/18 12:27:15;;;;;;;0.28;0.28;;;17.00;49.50;;;;;;4996593;28;20220;-91
2022/05/18 12:29:43;;;;;;;0.30;0.30;;;17.00;48.40;;;;;;4996252;28;20173;-91
2022/05/18 12:32:11;;;;;;;0.63;0.32;;;17.00;49.30;;;;;;5014056;28;20165;-90
2022/05/18 12:35:08;;;;;;;0.40;0.40;;;17.00;49.90;;;;;;5014217;28;20177;-90
2022/05/18 12:38:07;;;;;;;0.40;0.40;;;16.90;49.60;;;;;;5011700;28;20242;-90
2022/05/18 12:40:52;;;;;;;0.68;0.68;;;16.90;50.40;;;;;;4995394;28;20666;-89
2022/05/18 12:43:36;;;;;;;0.30;0.30;;;16.90;49.10;;;;;;4995795;28;20173;-90
2022/05/18 12:46:21;;;;;;;0.60;0.60;;;18.80;49.80;;;;;;5013391;28;20161;-90
2022/05/18 12:48:47;;;;;;;0.43;0.43;;;17.20;48.90;;;;;;5012769;28;20539;-90
2022/05/18 12:51:33;;;;;;;0.30;0.30;;;17.30;49.90;;;;;;4999383;28;20177;-92
2022/05/18 12:54:21;;;;;;;0.20;0.20;;;17.10;47.60;;;;;;5013755;28;20181;-90
2022/05/18 12:56:51;;;;;;;0.40;0.40;;;17.20;47.30;;;;;;5013758;28;20169;-89
2022/05/18 12:59:24;;;;;;;0.30;0.30;;;17.10;46.70;;;;;;4996386;28;20188;-89
2022/05/18 13:02:03;;;;;;;0.90;0.50;;;17.20;47.70;;;;;;5013501;28;20619;-88
2022/05/18 13:04:42;;;;;;;0.30;0.30;;;17.40;47.60;;;;;;4996101;28;20259;-89
2022/05/18 13:07:31;;;;;;;1.60;0.50;;;17.50;47.10;;;;;;5014028;28;20232;-89
2022/05/18 13:10:15;;;;;;;0.40;0.40;;;17.40;46.90;;;;;;5019105;28;20253;-91
2022/05/18 13:13:22;;;;;;;0.25;0.25;;;17.50;47.00;;;;;;5008317;28;20181;-91
2022/05/18 13:15:57;;;;;;;0.50;0.50;;;17.40;46.90;;;;;;5020947;28;20195;-90
2022/05/18 13:18:34;;;;;;;0.70;0.57;;;17.40;47.00;;;;;;5021145;28;20303;-91
2022/05/18 13:21:06;;;;;;;0.40;0.40;;;17.40;47.20;;;;;;5003507;28;20539;-91
2022/05/18 13:23:32;;;;;;;0.45;0.40;;;17.40;47.40;;;;;;5003008;28;20651;-89
2022/05/18 13:26:31;;;;;;;0.20;0.20;;;17.50;47.60;;;;;;5002595;28;20202;-90
2022/05/18 13:29:11;;;;;;;0.57;0.57;;;17.50;48.60;;;;;;5020010;28;20177;-89
2022/05/18 13:31:38;;;;;;;0.77;0.50;;;17.50;47.00;;;;;;5002633;28;20310;-88
2022/05/18 13:34:12;;;;;;;0.60;0.50;;;17.60;45.20;;;;;;4985695;28;20606;-88
2022/05/18 13:36:51;;;;;;;1.05;0.88;;;17.80;46.50;;;;;;5019681;28;20606;-90
2022/05/18 13:39:22;;;;;;;0.30;0.30;;;18.00;46.80;;;;;;5019940;28;20185;-88
2022/05/18 13:41:49;;;;;;;0.50;0.40;;;18.20;47.30;;;;;;5001532;28;20177;-90
2022/05/18 13:44:15;;;;;;;0.60;0.40;;;18.10;45.90;;;;;;5020075;28;20173;-88
2022/05/18 13:46:41;;;;;;;0.35;0.35;;;18.00;44.60;;;;;;5019741;28;20560;-88
2022/05/18 13:49:14;;;;;;;0.40;0.40;;;17.70;44.80;;;;;;5003112;28;20209;-88
2022/05/18 13:51:47;;;;;;;0.40;0.40;;;17.70;46.40;;;;;;5002440;28;20630;-88
2022/05/18 13:54:17;;;;;;;0.50;0.50;;;18.00;45.50;;;;;;5019838;28;20157;-89
2022/05/18 13:56:48;;;;;;;0.40;0.40;;;18.20;46.50;;;;;;5020218;28;20212;-88
2022/05/18 13:59:23;;;;;;;0.60;0.60;;;18.30;47.10;;;;;;5020394;28;20638;-89
2022/05/18 14:01:52;;;;;;;1.05;0.43;;;18.50;45.50;;;;;;5019776;28;20231;-89
2022/05/18 14:04:28;;;;;;;0.35;0.35;;;18.60;46.60;;;;;;5002459;28;20638;-90
2022/05/18 14:06:55;;;;;;;1.17;0.43;;;18.50;45.70;;;;;;5019005;28;20201;-89